Time,TemperatureF,DewpointF,PressureIn,WindDirection,WindDirectionDegrees,WindSpeedMPH,WindSpeedGustMPH,Humidity,HourlyPrecipIn,Conditions,Clouds,dailyrainin,SoftwareType,DateUTC
2013-04-20 00:01:00,45.0,40.8,27.44,South,180,2.0,2.9,85,0.00,,,0.00,WUHU216HW,2013-04-20 07:01:00,
2013-04-20 00:06:00,45.0,40.8,27.44,South,180,2.7,2.9,85,0.00,,,0.00,WUHU216HW,2013-04-20 07:06:00,
2013-04-20 00:11:00,45.0,40.8,27.44,SSW,203,2.5,3.1,85,0.00,,,0.00,WUHU216HW,2013-04-20 07:11:00,
2013-04-20 00:16:00,45.0,40.8,27.43,SW,225,3.4,3.6,85,0.00,,,0.00,WUHU216HW,2013-04-20 07:16:00,
2013-04-20 00:21:00,44.8,40.6,27.44,SW,225,3.4,4.7,85,0.00,,,0.00,WUHU216HW,2013-04-20 07:21:00,
2013-04-20 00:26:00,44.5,40.2,27.44,SW,225,4.0,4.7,85,0.00,,,0.00,WUHU216HW,2013-04-20 07:26:00,
2013-04-20 00:31:00,44.5,40.2,27.44,SSW,203,3.4,4.0,85,0.00,,,0.00,WUHU216HW,2013-04-20 07:31:00,
2013-04-20 00:36:00,44.3,39.8,27.45,SSW,203,2.2,3.6,84,0.00,,,0.00,WUHU216HW,2013-04-20 07:36:00,
2013-04-20 00:41:00,44.1,39.6,27.45,SSW,203,1.6,2.7,84,0.00,,,0.00,WUHU216HW,2013-04-20 07:41:00,
2013-04-20 00:46:00,43.9,39.4,27.45,SSW,203,2.2,2.7,84,0.00,,,0.00,WUHU216HW,2013-04-20 07:46:00,
2013-04-20 00:51:00,43.7,38.9,27.45,SSW,203,1.6,2.2,83,0.00,,,0.00,WUHU216HW,2013-04-20 07:51:00,
2013-04-20 00:56:00,43.6,38.7,27.45,SSW,203,1.1,2.5,83,0.00,,,0.00,WUHU216HW,2013-04-20 07:56:00,
2013-04-20 01:01:00,43.4,38.5,27.45,SW,225,1.1,2.5,83,0.00,,,0.00,WUHU216HW,2013-04-20 08:01:00,
2013-04-20 01:06:00,43.2,38.3,27.45,SW,225,0.7,2.2,83,0.00,,,0.00,WUHU216HW,2013-04-20 08:06:00,
2013-04-20 01:11:00,43.0,38.2,27.45,SSW,203,1.1,2.2,83,0.00,,,0.00,WUHU216HW,2013-04-20 08:11:00,
2013-04-20 01:16:00,42.8,38.0,27.45,SSW,203,1.3,2.0,83,0.00,,,0.00,WUHU216HW,2013-04-20 08:16:00,
2013-04-20 01:21:00,42.8,38.0,27.46,SSW,203,0.9,2.2,83,0.00,,,0.00,WUHU216HW,2013-04-20 08:21:00,
2013-04-20 01:26:00,42.5,37.6,27.46,SSW,203,1.8,2.2,83,0.00,,,0.00,WUHU216HW,2013-04-20 08:26:00,
2013-04-20 01:31:00,42.5,37.6,27.45,SSW,203,2.0,2.5,83,0.00,,,0.00,WUHU216HW,2013-04-20 08:31:00,
2013-04-20 01:36:00,42.1,37.3,27.46,SSW,203,2.0,2.5,83,0.00,,,0.00,WUHU216HW,2013-04-20 08:36:00,
2013-04-20 01:41:00,41.9,37.1,27.46,SSW,203,3.4,3.4,83,0.00,,,0.00,WUHU216HW,2013-04-20 08:41:00,
2013-04-20 01:46:00,41.9,36.8,27.46,SSW,203,3.6,3.6,82,0.00,,,0.00,WUHU216HW,2013-04-20 08:46:00,
2013-04-20 01:51:00,41.8,36.6,27.46,SW,225,3.4,4.5,82,0.00,,,0.00,WUHU216HW,2013-04-20 08:51:00,
2013-04-20 01:56:00,41.8,36.6,27.46,SSW,203,3.8,4.5,82,0.00,,,0.00,WUHU216HW,2013-04-20 08:56:00,
2013-04-20 02:01:00,41.4,36.3,27.46,SSW,203,3.1,4.0,82,0.00,,,0.00,WUHU216HW,2013-04-20 09:01:00,
2013-04-20 02:06:00,41.4,36.3,27.46,SSW,203,1.3,5.1,82,0.00,,,0.00,WUHU216HW,2013-04-20 09:06:00,
2013-04-20 02:11:00,41.2,36.1,27.46,South,180,3.1,5.1,82,0.00,,,0.00,WUHU216HW,2013-04-20 09:11:00,
2013-04-20 02:16:00,41.2,36.1,27.46,SSW,203,3.4,3.6,82,0.00,,,0.00,WUHU216HW,2013-04-20 09:16:00,
2013-04-20 02:21:00,40.9,36.0,27.47,SW,225,4.0,4.0,83,0.00,,,0.00,WUHU216HW,2013-04-20 09:21:00,
2013-04-20 02:26:00,41.0,36.6,27.47,SSW,203,1.8,4.0,84,0.00,,,0.00,WUHU216HW,2013-04-20 09:26:00,
2013-04-20 02:31:00,41.0,36.6,27.47,SW,225,3.1,3.6,84,0.00,,,0.00,WUHU216HW,2013-04-20 09:31:00,
2013-04-20 02:36:00,41.0,36.6,27.47,SW,225,3.4,3.6,84,0.00,,,0.00,WUHU216HW,2013-04-20 09:36:00,
2013-04-20 02:41:00,41.0,36.6,27.47,SSW,203,3.4,4.3,84,0.00,,,0.00,WUHU216HW,2013-04-20 09:41:00,
2013-04-20 02:46:00,40.9,36.4,27.47,SSW,203,4.3,4.3,84,0.00,,,0.00,WUHU216HW,2013-04-20 09:46:00,
2013-04-20 02:51:00,40.9,36.6,27.47,SSW,203,4.3,5.1,85,0.00,,,0.00,WUHU216HW,2013-04-20 09:51:00,
2013-04-20 02:56:00,40.7,36.5,27.47,SSE,158,1.8,5.1,85,0.00,,,0.00,WUHU216HW,2013-04-20 09:56:00,
2013-04-20 03:01:00,40.5,36.6,27.48,SSW,203,1.3,2.5,86,0.00,,,0.00,WUHU216HW,2013-04-20 10:01:00,
2013-04-20 03:06:00,40.5,36.6,27.48,SSE,158,1.1,2.5,86,0.00,,,0.00,WUHU216HW,2013-04-20 10:06:00,
2013-04-20 03:11:00,40.5,36.3,27.48,SSW,203,1.1,2.7,85,0.00,,,0.00,WUHU216HW,2013-04-20 10:11:00,
2013-04-20 03:16:00,40.5,36.3,27.48,SW,225,2.0,3.4,85,0.00,,,0.00,WUHU216HW,2013-04-20 10:16:00,
2013-04-20 03:21:00,40.1,36.3,27.48,SSW,203,1.1,3.4,86,0.00,,,0.00,WUHU216HW,2013-04-20 10:21:00,
2013-04-20 03:26:00,40.0,36.1,27.48,SSW,203,2.5,2.5,86,0.00,,,0.00,WUHU216HW,2013-04-20 10:26:00,
2013-04-20 03:31:00,39.6,36.0,27.48,SSE,158,1.8,2.5,87,0.00,,,0.00,WUHU216HW,2013-04-20 10:31:00,
2013-04-20 03:36:00,39.2,35.4,27.48,SSE,158,0.4,2.2,86,0.00,,,0.00,WUHU216HW,2013-04-20 10:36:00,
2013-04-20 03:41:00,39.1,35.5,27.49,SSE,158,1.1,1.1,87,0.00,,,0.00,WUHU216HW,2013-04-20 10:41:00,
2013-04-20 03:46:00,38.9,35.7,27.49,SW,225,0.9,1.1,88,0.00,,,0.00,WUHU216HW,2013-04-20 10:46:00,
2013-04-20 03:51:00,38.5,35.3,27.48,SSW,203,0.4,1.8,88,0.00,,,0.00,WUHU216HW,2013-04-20 10:51:00,
2013-04-20 03:56:00,38.5,35.6,27.49,SSW,203,2.2,2.2,89,0.00,,,0.00,WUHU216HW,2013-04-20 10:56:00,
2013-04-20 04:01:00,38.5,35.6,27.49,SW,225,1.1,2.5,89,0.00,,,0.00,WUHU216HW,2013-04-20 11:01:00,
2013-04-20 04:06:00,38.5,35.6,27.49,SW,225,1.1,2.5,89,0.00,,,0.00,WUHU216HW,2013-04-20 11:06:00,
2013-04-20 04:11:00,38.5,35.6,27.50,SSW,203,1.8,3.1,89,0.00,,,0.00,WUHU216HW,2013-04-20 11:11:00,
2013-04-20 04:16:00,38.2,35.2,27.50,South,180,2.0,3.1,89,0.00,,,0.00,WUHU216HW,2013-04-20 11:16:00,
2013-04-20 04:21:00,38.2,35.5,27.50,SW,225,3.4,3.4,90,0.00,,,0.00,WUHU216HW,2013-04-20 11:21:00,
2013-04-20 04:26:00,38.2,35.5,27.50,SSW,203,2.9,3.8,90,0.00,,,0.00,WUHU216HW,2013-04-20 11:26:00,
2013-04-20 04:31:00,38.2,35.5,27.50,SSW,203,2.0,3.8,90,0.00,,,0.00,WUHU216HW,2013-04-20 11:31:00,
2013-04-20 04:36:00,38.2,35.5,27.51,SSW,203,1.3,3.8,90,0.00,,,0.00,WUHU216HW,2013-04-20 11:36:00,
2013-04-20 04:41:00,38.0,35.3,27.51,SSW,203,2.5,3.6,90,0.00,,,0.00,WUHU216HW,2013-04-20 11:41:00,
2013-04-20 04:46:00,37.8,35.1,27.51,SW,225,2.9,3.1,90,0.00,,,0.00,WUHU216HW,2013-04-20 11:46:00,
2013-04-20 04:51:00,37.8,35.1,27.51,SSW,203,2.5,3.1,90,0.00,,,0.00,WUHU216HW,2013-04-20 11:51:00,
2013-04-20 04:56:00,37.8,35.1,27.51,SSW,203,2.2,2.5,90,0.00,,,0.00,WUHU216HW,2013-04-20 11:56:00,
2013-04-20 05:01:00,37.6,34.9,27.51,SE,135,1.6,2.5,90,0.00,,,0.00,WUHU216HW,2013-04-20 12:01:00,
2013-04-20 05:06:00,37.6,35.2,27.51,South,180,2.0,2.5,91,0.00,,,0.00,WUHU216HW,2013-04-20 12:06:00,
2013-04-20 05:11:00,37.4,34.7,27.51,SSE,158,0.0,2.0,90,0.00,,,0.00,WUHU216HW,2013-04-20 12:11:00,
2013-04-20 05:16:00,37.3,34.3,27.51,SSE,158,0.0,1.8,89,0.00,,,0.00,WUHU216HW,2013-04-20 12:16:00,
2013-04-20 05:21:00,37.1,34.1,27.51,WSW,248,0.4,1.1,89,0.00,,,0.00,WUHU216HW,2013-04-20 12:21:00,
2013-04-20 05:26:00,36.9,34.2,27.51,ESE,113,2.0,2.0,90,0.00,,,0.00,WUHU216HW,2013-04-20 12:26:00,
2013-04-20 05:31:00,36.9,34.2,27.51,SSW,203,0.2,2.0,90,0.00,,,0.00,WUHU216HW,2013-04-20 12:31:00,
2013-04-20 05:36:00,36.7,34.3,27.51,SE,135,0.9,0.9,91,0.00,,,0.00,WUHU216HW,2013-04-20 12:36:00,
2013-04-20 05:41:00,36.7,34.3,27.51,SSW,203,0.4,0.9,91,0.00,,,0.00,WUHU216HW,2013-04-20 12:41:00,
2013-04-20 05:46:00,36.7,34.6,27.52,SW,225,0.7,1.8,92,0.00,,,0.00,WUHU216HW,2013-04-20 12:46:00,
2013-04-20 05:51:00,36.9,34.7,27.52,SSW,203,1.1,1.8,92,0.00,,,0.00,WUHU216HW,2013-04-20 12:51:00,
2013-04-20 05:56:00,37.1,34.9,27.52,SSW,203,1.6,3.4,92,0.00,,,0.00,WUHU216HW,2013-04-20 12:56:00,
2013-04-20 06:01:00,37.1,34.9,27.51,SSW,203,2.5,3.4,92,0.00,,,0.00,WUHU216HW,2013-04-20 13:01:00,
2013-04-20 06:06:00,37.1,34.9,27.52,South,180,1.8,5.1,92,0.00,,,0.00,WUHU216HW,2013-04-20 13:06:00,
2013-04-20 06:11:00,37.1,34.7,27.52,SSW,203,0.4,5.1,91,0.00,,,0.00,WUHU216HW,2013-04-20 13:11:00,
2013-04-20 06:16:00,37.1,34.9,27.52,ESE,113,1.3,2.5,92,0.00,,,0.00,WUHU216HW,2013-04-20 13:16:00,
2013-04-20 06:21:00,37.3,35.1,27.52,SSW,203,1.1,2.7,92,0.00,,,0.00,WUHU216HW,2013-04-20 13:21:00,
2013-04-20 06:26:00,37.3,34.8,27.53,WSW,248,1.8,2.7,91,0.00,,,0.00,WUHU216HW,2013-04-20 13:26:00,
2013-04-20 06:31:00,37.4,35.0,27.53,SE,135,0.9,1.8,91,0.00,,,0.00,WUHU216HW,2013-04-20 13:31:00,
2013-04-20 06:36:00,37.6,35.2,27.53,SSE,158,0.4,1.1,91,0.00,,,0.00,WUHU216HW,2013-04-20 13:36:00,
2013-04-20 06:41:00,37.6,35.2,27.53,WSW,248,1.8,1.8,91,0.00,,,0.00,WUHU216HW,2013-04-20 13:41:00,
2013-04-20 06:46:00,37.8,35.1,27.53,SE,135,4.0,4.0,90,0.00,,,0.00,WUHU216HW,2013-04-20 13:46:00,
2013-04-20 06:51:00,38.0,35.3,27.53,SSW,203,1.8,4.0,90,0.00,,,0.00,WUHU216HW,2013-04-20 13:51:00,
2013-04-20 06:56:00,38.3,35.9,27.54,SW,225,1.3,2.9,91,0.00,,,0.00,WUHU216HW,2013-04-20 13:56:00,
2013-04-20 07:01:00,38.3,35.6,27.53,WSW,248,1.1,2.9,90,0.00,,,0.00,WUHU216HW,2013-04-20 14:01:00,
2013-04-20 07:06:00,38.7,36.0,27.54,SSW,203,2.0,2.5,90,0.00,,,0.00,WUHU216HW,2013-04-20 14:06:00,
2013-04-20 07:11:00,38.7,36.0,27.54,SW,225,1.1,2.5,90,0.00,,,0.00,WUHU216HW,2013-04-20 14:11:00,
2013-04-20 07:16:00,38.9,35.9,27.54,East,90,1.1,1.8,89,0.00,,,0.00,WUHU216HW,2013-04-20 14:16:00,
2013-04-20 07:21:00,39.2,36.3,27.54,SW,225,0.7,3.4,89,0.00,,,0.00,WUHU216HW,2013-04-20 14:21:00,
2013-04-20 07:27:00,39.2,36.3,27.54,SSW,203,1.8,3.4,89,0.00,,,0.00,WUHU216HW,2013-04-20 14:27:00,
2013-04-20 07:32:00,39.6,36.6,27.54,SSE,158,2.9,2.9,89,0.00,,,0.00,WUHU216HW,2013-04-20 14:32:00,
2013-04-20 07:36:00,40.0,36.6,27.54,SE,135,0.0,2.9,88,0.00,,,0.00,WUHU216HW,2013-04-20 14:36:00,
2013-04-20 07:41:00,40.3,36.7,27.54,SSW,203,2.5,3.8,87,0.00,,,0.00,WUHU216HW,2013-04-20 14:41:00,
2013-04-20 07:46:00,40.5,36.6,27.54,SW,225,2.7,4.0,86,0.00,,,0.00,WUHU216HW,2013-04-20 14:46:00,
2013-04-20 07:51:00,41.0,37.1,27.54,ESE,113,3.4,4.3,86,0.00,,,0.00,WUHU216HW,2013-04-20 14:51:00,
2013-04-20 07:57:00,41.6,37.4,27.55,South,180,1.8,4.3,85,0.00,,,0.00,WUHU216HW,2013-04-20 14:57:00,
2013-04-20 08:02:00,42.1,37.9,27.54,SSW,203,2.7,2.7,85,0.00,,,0.00,WUHU216HW,2013-04-20 15:02:00,
2013-04-20 08:06:00,41.9,37.5,27.55,SSW,203,1.8,2.7,84,0.00,,,0.00,WUHU216HW,2013-04-20 15:06:00,
2013-04-20 08:12:00,41.8,37.3,27.55,SSW,203,4.0,4.0,84,0.00,,,0.00,WUHU216HW,2013-04-20 15:12:00,
2013-04-20 08:17:00,41.8,37.3,27.55,SSW,203,3.1,5.1,84,0.00,,,0.00,WUHU216HW,2013-04-20 15:17:00,
2013-04-20 08:22:00,42.3,38.1,27.55,SSW,203,1.3,5.1,85,0.00,,,0.00,WUHU216HW,2013-04-20 15:22:00,
2013-04-20 08:27:00,42.3,37.8,27.55,SSW,203,2.0,4.3,84,0.00,,,0.00,WUHU216HW,2013-04-20 15:27:00,
2013-04-20 08:32:00,42.1,37.6,27.55,SSW,203,4.5,5.1,84,0.00,,,0.00,WUHU216HW,2013-04-20 15:32:00,
2013-04-20 08:37:00,42.1,37.9,27.55,SW,225,2.2,5.1,85,0.00,,,0.00,WUHU216HW,2013-04-20 15:37:00,
2013-04-20 08:42:00,42.3,38.1,27.55,SSW,203,4.0,4.0,85,0.00,,,0.00,WUHU216HW,2013-04-20 15:42:00,
2013-04-20 08:47:00,43.0,38.8,27.55,SW,225,1.8,4.0,85,0.00,,,0.00,WUHU216HW,2013-04-20 15:47:00,
2013-04-20 08:52:00,44.1,39.6,27.55,SE,135,0.9,3.4,84,0.00,,,0.00,WUHU216HW,2013-04-20 15:52:00,
2013-04-20 08:57:00,44.3,39.2,27.55,SW,225,3.1,6.9,82,0.00,,,0.00,WUHU216HW,2013-04-20 15:57:00,
2013-04-20 09:02:00,44.8,40.0,27.55,South,180,1.3,6.9,83,0.00,,,0.00,WUHU216HW,2013-04-20 16:02:00,
2013-04-20 09:07:00,44.6,38.9,27.55,WSW,248,3.4,3.8,80,0.00,,,0.00,WUHU216HW,2013-04-20 16:07:00,
2013-04-20 09:12:00,44.8,39.1,27.55,SW,225,4.5,5.4,80,0.00,,,0.00,WUHU216HW,2013-04-20 16:12:00,
2013-04-20 09:17:00,46.1,39.6,27.55,SW,225,1.8,6.3,78,0.00,,,0.00,WUHU216HW,2013-04-20 16:17:00,
2013-04-20 09:22:00,47.2,40.0,27.55,SSW,203,3.4,6.3,76,0.00,,,0.00,WUHU216HW,2013-04-20 16:22:00,
2013-04-20 09:27:00,48.2,40.6,27.55,SW,225,3.1,6.3,75,0.00,,,0.00,WUHU216HW,2013-04-20 16:27:00,
2013-04-20 09:32:00,49.0,40.6,27.55,SSW,203,5.1,5.1,73,0.00,,,0.00,WUHU216HW,2013-04-20 16:32:00,
2013-04-20 09:37:00,48.8,40.2,27.55,SSW,203,2.9,8.7,72,0.00,,,0.00,WUHU216HW,2013-04-20 16:37:00,
2013-04-20 09:42:00,49.0,40.6,27.56,SSW,203,5.4,8.7,73,0.00,,,0.00,WUHU216HW,2013-04-20 16:42:00,
2013-04-20 09:47:00,49.7,41.1,27.56,SSE,158,2.9,6.3,72,0.00,,,0.00,WUHU216HW,2013-04-20 16:47:00,
2013-04-20 09:52:00,50.6,41.2,27.55,SSW,203,2.2,5.4,70,0.00,,,0.00,WUHU216HW,2013-04-20 16:52:00,
2013-04-20 09:57:00,51.3,41.5,27.55,SSW,203,3.1,5.4,69,0.00,,,0.00,WUHU216HW,2013-04-20 16:57:00,
2013-04-20 10:02:00,50.8,41.1,27.56,SW,225,5.4,5.6,69,0.00,,,0.00,WUHU216HW,2013-04-20 17:02:00,
2013-04-20 10:07:00,49.9,40.2,27.55,SSW,203,6.5,6.5,69,0.00,,,0.00,WUHU216HW,2013-04-20 17:07:00,
2013-04-20 10:12:00,49.5,40.5,27.56,SW,225,4.0,6.5,71,0.00,,,0.00,WUHU216HW,2013-04-20 17:12:00,
2013-04-20 10:17:00,49.3,40.3,27.56,West,270,3.4,6.3,71,0.00,,,0.00,WUHU216HW,2013-04-20 17:17:00,
2013-04-20 10:22:00,49.1,39.8,27.56,WSW,248,4.9,8.1,70,0.00,,,0.00,WUHU216HW,2013-04-20 17:22:00,
2013-04-20 10:27:00,49.3,39.6,27.56,SSW,203,4.0,10.5,69,0.00,,,0.00,WUHU216HW,2013-04-20 17:27:00,
2013-04-20 10:32:00,49.9,39.7,27.56,SSW,203,3.4,10.5,68,0.00,,,0.00,WUHU216HW,2013-04-20 17:32:00,
2013-04-20 10:37:00,50.4,40.7,27.56,SW,225,2.7,7.4,69,0.00,,,0.00,WUHU216HW,2013-04-20 17:37:00,
2013-04-20 10:42:00,51.7,39.9,27.56,SW,225,6.0,8.3,64,0.00,,,0.00,WUHU216HW,2013-04-20 17:42:00,
2013-04-20 10:47:00,51.8,40.4,27.56,SW,225,5.4,8.5,65,0.00,,,0.00,WUHU216HW,2013-04-20 17:47:00,
2013-04-20 10:52:00,52.2,41.1,27.56,SSW,203,3.6,8.7,66,0.00,,,0.00,WUHU216HW,2013-04-20 17:52:00,
2013-04-20 10:57:00,52.2,40.0,27.56,SSW,203,4.5,8.7,63,0.00,,,0.00,WUHU216HW,2013-04-20 17:57:00,
2013-04-20 11:02:00,51.8,40.0,27.56,SW,225,5.8,8.5,64,0.00,,,0.00,WUHU216HW,2013-04-20 18:02:00,
2013-04-20 11:07:00,52.7,40.9,27.56,SSW,203,4.7,8.5,64,0.00,,,0.00,WUHU216HW,2013-04-20 18:07:00,
2013-04-20 11:12:00,53.6,40.5,27.55,SW,225,6.3,7.2,61,0.00,,,0.00,WUHU216HW,2013-04-20 18:12:00,
2013-04-20 11:17:00,53.3,39.8,27.56,SSW,203,7.2,12.1,60,0.00,,,0.00,WUHU216HW,2013-04-20 18:17:00,
2013-04-20 11:22:00,52.7,39.2,27.56,SSW,203,4.7,12.1,60,0.00,,,0.00,WUHU216HW,2013-04-20 18:22:00,
2013-04-20 11:27:00,52.9,39.0,27.56,SSW,203,10.1,10.1,59,0.00,,,0.00,WUHU216HW,2013-04-20 18:27:00,
2013-04-20 11:32:00,52.9,39.0,27.56,SSW,203,6.9,10.1,59,0.00,,,0.00,WUHU216HW,2013-04-20 18:32:00,
2013-04-20 11:37:00,52.0,39.0,27.56,SW,225,6.3,7.2,61,0.00,,,0.00,WUHU216HW,2013-04-20 18:37:00,
2013-04-20 11:42:00,52.0,39.3,27.56,South,180,4.0,7.2,62,0.00,,,0.00,WUHU216HW,2013-04-20 18:42:00,
2013-04-20 11:47:00,52.7,38.8,27.55,SSW,203,6.9,6.9,59,0.00,,,0.00,WUHU216HW,2013-04-20 18:47:00,
2013-04-20 11:52:00,53.8,39.9,27.55,SSW,203,5.1,7.2,59,0.00,,,0.00,WUHU216HW,2013-04-20 18:52:00,
2013-04-20 11:57:00,54.5,40.1,27.55,South,180,3.4,7.2,58,0.00,,,0.00,WUHU216HW,2013-04-20 18:57:00,
2013-04-20 12:02:00,54.7,38.8,27.55,SSW,203,4.0,10.5,55,0.00,,,0.00,WUHU216HW,2013-04-20 19:02:00,
2013-04-20 12:07:00,54.2,40.1,27.54,SSE,158,2.2,10.5,59,0.00,,,0.00,WUHU216HW,2013-04-20 19:07:00,
2013-04-20 12:12:00,54.0,39.5,27.55,SW,225,4.7,5.8,58,0.00,,,0.00,WUHU216HW,2013-04-20 19:12:00,
2013-04-20 12:17:00,54.2,39.7,27.54,SSW,203,7.6,7.6,58,0.00,,,0.00,WUHU216HW,2013-04-20 19:17:00,
2013-04-20 12:22:00,54.5,38.2,27.54,SW,225,6.3,7.6,54,0.00,,,0.00,WUHU216HW,2013-04-20 19:22:00,
2013-04-20 12:27:00,54.2,37.8,27.54,WSW,248,8.7,8.9,54,0.00,,,0.00,WUHU216HW,2013-04-20 19:27:00,
2013-04-20 12:32:00,53.8,38.0,27.54,SW,225,4.9,8.9,55,0.00,,,0.00,WUHU216HW,2013-04-20 19:32:00,
2013-04-20 12:37:00,54.9,39.4,27.53,SW,225,5.1,6.9,56,0.00,,,0.00,WUHU216HW,2013-04-20 19:37:00,
2013-04-20 12:42:00,55.4,39.0,27.53,SSW,203,4.0,6.3,54,0.00,,,0.00,WUHU216HW,2013-04-20 19:42:00,
2013-04-20 12:47:00,56.7,41.6,27.53,SW,225,4.7,6.9,57,0.00,,,0.00,WUHU216HW,2013-04-20 19:47:00,
2013-04-20 12:52:00,57.2,39.8,27.53,SW,225,6.9,6.9,52,0.00,,,0.00,WUHU216HW,2013-04-20 19:52:00,
2013-04-20 12:57:00,57.6,39.7,27.53,SSW,203,4.5,8.9,51,0.00,,,0.00,WUHU216HW,2013-04-20 19:57:00,
2013-04-20 13:02:00,57.8,38.8,27.53,SSW,203,7.4,8.9,49,0.00,,,0.00,WUHU216HW,2013-04-20 20:02:00,
2013-04-20 13:07:00,58.0,39.0,27.53,SW,225,9.6,9.6,49,0.00,,,0.00,WUHU216HW,2013-04-20 20:07:00,
2013-04-20 13:12:00,57.1,38.7,27.53,South,180,6.5,9.6,50,0.00,,,0.00,WUHU216HW,2013-04-20 20:12:00,
2013-04-20 13:17:00,56.2,37.8,27.53,SW,225,4.7,8.1,50,0.00,,,0.00,WUHU216HW,2013-04-20 20:17:00,
2013-04-20 13:22:00,55.8,38.3,27.53,SE,135,3.4,8.1,52,0.00,,,0.00,WUHU216HW,2013-04-20 20:22:00,
2013-04-20 13:27:00,56.2,37.8,27.53,SW,225,8.1,8.1,50,0.00,,,0.00,WUHU216HW,2013-04-20 20:27:00,
2013-04-20 13:32:00,57.1,38.2,27.52,SSW,203,6.7,8.1,49,0.00,,,0.00,WUHU216HW,2013-04-20 20:32:00,
2013-04-20 13:37:00,56.9,37.4,27.52,WSW,248,5.4,9.2,48,0.00,,,0.00,WUHU216HW,2013-04-20 20:37:00,
2013-04-20 13:42:00,57.4,38.4,27.52,SW,225,6.3,9.2,49,0.00,,,0.00,WUHU216HW,2013-04-20 20:42:00,
2013-04-20 13:47:00,56.9,38.0,27.52,SW,225,5.8,9.8,49,0.00,,,0.00,WUHU216HW,2013-04-20 20:47:00,
2013-04-20 13:52:00,56.5,37.6,27.52,WSW,248,6.3,9.8,49,0.00,,,0.00,WUHU216HW,2013-04-20 20:52:00,
2013-04-20 13:57:00,57.1,37.5,27.52,SSW,203,3.4,6.3,48,0.00,,,0.00,WUHU216HW,2013-04-20 20:57:00,
2013-04-20 14:02:00,56.9,36.8,27.52,SSW,203,6.9,8.5,47,0.00,,,0.00,WUHU216HW,2013-04-20 21:02:00,
2013-04-20 14:07:00,58.3,37.0,27.51,SSW,203,5.4,8.5,45,0.00,,,0.00,WUHU216HW,2013-04-20 21:07:00,
2013-04-20 14:12:00,58.7,37.3,27.51,SSW,203,4.9,8.7,45,0.00,,,0.00,WUHU216HW,2013-04-20 21:12:00,
2013-04-20 14:17:00,59.4,37.4,27.51,SW,225,6.0,9.8,44,0.00,,,0.00,WUHU216HW,2013-04-20 21:17:00,
2013-04-20 14:22:00,59.4,38.0,27.51,SW,225,8.5,9.8,45,0.00,,,0.00,WUHU216HW,2013-04-20 21:22:00,
2013-04-20 14:27:00,59.0,37.1,27.51,SSW,203,6.9,11.6,44,0.00,,,0.00,WUHU216HW,2013-04-20 21:27:00,
2013-04-20 14:32:00,59.0,36.5,27.51,WSW,248,8.5,11.6,43,0.00,,,0.00,WUHU216HW,2013-04-20 21:32:00,
2013-04-20 14:37:00,58.7,36.7,27.51,SSW,203,6.3,9.6,44,0.00,,,0.00,WUHU216HW,2013-04-20 21:37:00,
2013-04-20 14:42:00,58.7,37.3,27.51,SW,225,5.4,10.5,45,0.00,,,0.00,WUHU216HW,2013-04-20 21:42:00,
2013-04-20 14:47:00,59.0,37.1,27.51,SSW,203,4.7,10.5,44,0.00,,,0.00,WUHU216HW,2013-04-20 21:47:00,
2013-04-20 14:52:00,58.3,36.4,27.51,South,180,4.0,6.5,44,0.00,,,0.00,WUHU216HW,2013-04-20 21:52:00,
2013-04-20 14:57:00,57.6,36.9,27.51,SW,225,7.2,10.1,46,0.00,,,0.00,WUHU216HW,2013-04-20 21:57:00,
2013-04-20 15:02:00,58.5,37.2,27.51,SSW,203,10.5,10.5,45,0.00,,,0.00,WUHU216HW,2013-04-20 22:02:00,
2013-04-20 15:07:00,58.7,36.7,27.50,SW,225,11.4,11.4,44,0.00,,,0.00,WUHU216HW,2013-04-20 22:07:00,
2013-04-20 15:12:00,58.3,36.4,27.51,SW,225,5.8,11.4,44,0.00,,,0.00,WUHU216HW,2013-04-20 22:12:00,
2013-04-20 15:17:00,57.8,34.7,27.50,WSW,248,6.7,9.4,42,0.00,,,0.00,WUHU216HW,2013-04-20 22:17:00,
2013-04-20 15:22:00,58.3,35.3,27.50,SW,225,4.7,9.8,42,0.00,,,0.00,WUHU216HW,2013-04-20 22:22:00,
2013-04-20 15:27:00,59.8,36.0,27.50,SW,225,9.8,9.8,41,0.00,,,0.00,WUHU216HW,2013-04-20 22:27:00,
2013-04-20 15:32:00,59.0,35.3,27.50,SW,225,5.4,9.8,41,0.00,,,0.00,WUHU216HW,2013-04-20 22:32:00,
2013-04-20 15:37:00,58.5,36.0,27.50,SSW,203,2.2,9.2,43,0.00,,,0.00,WUHU216HW,2013-04-20 22:37:00,
2013-04-20 15:42:00,58.5,34.8,27.50,ESE,113,5.4,9.2,41,0.00,,,0.00,WUHU216HW,2013-04-20 22:42:00,
2013-04-20 15:47:00,59.8,36.5,27.50,SSW,203,4.0,6.5,42,0.00,,,0.00,WUHU216HW,2013-04-20 22:47:00,
2013-04-20 15:52:00,60.1,36.3,27.49,SW,225,6.9,10.5,41,0.00,,,0.00,WUHU216HW,2013-04-20 22:52:00,
2013-04-20 15:57:00,59.8,35.4,27.49,SW,225,8.5,10.5,40,0.00,,,0.00,WUHU216HW,2013-04-20 22:57:00,
2013-04-20 16:02:00,58.9,34.6,27.49,SSW,203,8.5,8.5,40,0.00,,,0.00,WUHU216HW,2013-04-20 23:02:00,
2013-04-20 16:07:00,57.2,33.7,27.50,SW,225,8.7,8.7,41,0.00,,,0.00,WUHU216HW,2013-04-20 23:07:00,
2013-04-20 16:12:00,57.2,34.8,27.49,SW,225,7.4,8.7,43,0.00,,,0.00,WUHU216HW,2013-04-20 23:12:00,
2013-04-20 16:17:00,57.8,35.4,27.49,SSW,203,5.4,11.0,43,0.00,,,0.00,WUHU216HW,2013-04-20 23:17:00,
2013-04-20 16:22:00,57.4,35.6,27.49,SSW,203,5.8,11.0,44,0.00,,,0.00,WUHU216HW,2013-04-20 23:22:00,
2013-04-20 16:27:00,58.5,34.8,27.49,SSW,203,6.9,12.3,41,0.00,,,0.00,WUHU216HW,2013-04-20 23:27:00,
2013-04-20 16:32:00,58.3,35.8,27.49,SW,225,5.4,12.3,43,0.00,,,0.00,WUHU216HW,2013-04-20 23:32:00,
2013-04-20 16:37:00,57.8,34.2,27.49,WSW,248,8.5,8.5,41,0.00,,,0.00,WUHU216HW,2013-04-20 23:37:00,
2013-04-20 16:42:00,57.1,34.1,27.49,SSW,203,6.3,8.5,42,0.00,,,0.00,WUHU216HW,2013-04-20 23:42:00,
2013-04-20 16:47:00,57.2,36.0,27.49,SW,225,5.1,7.4,45,0.00,,,0.00,WUHU216HW,2013-04-20 23:47:00,
2013-04-20 16:52:00,59.0,35.3,27.48,SW,225,9.2,9.2,41,0.00,,,0.00,WUHU216HW,2013-04-20 23:52:00,
2013-04-20 16:57:00,59.2,34.2,27.48,SW,225,5.8,9.2,39,0.00,,,0.00,WUHU216HW,2013-04-20 23:57:00,
2013-04-20 17:02:00,58.9,33.8,27.48,WSW,248,5.4,8.9,39,0.00,,,0.00,WUHU216HW,2013-04-21 00:02:00,
2013-04-20 17:07:00,58.9,34.6,27.48,SSW,203,5.4,8.9,40,0.00,,,0.00,WUHU216HW,2013-04-21 00:07:00,
2013-04-20 17:12:00,59.2,34.2,27.48,South,180,8.7,8.9,39,0.00,,,0.00,WUHU216HW,2013-04-21 00:12:00,
2013-04-20 17:17:00,59.0,34.7,27.48,SSW,203,4.0,8.7,40,0.00,,,0.00,WUHU216HW,2013-04-21 00:17:00,
2013-04-20 17:22:00,58.9,33.8,27.48,SSW,203,8.9,10.5,39,0.00,,,0.00,WUHU216HW,2013-04-21 00:22:00,
2013-04-20 17:27:00,58.7,34.4,27.48,WSW,248,6.7,10.5,40,0.00,,,0.00,WUHU216HW,2013-04-21 00:27:00,
2013-04-20 17:32:00,58.9,34.6,27.48,SSW,203,4.5,9.8,40,0.00,,,0.00,WUHU216HW,2013-04-21 00:32:00,
2013-04-20 17:37:00,59.0,34.0,27.48,SSW,203,3.8,9.8,39,0.00,,,0.00,WUHU216HW,2013-04-21 00:37:00,
2013-04-20 17:42:00,58.3,34.1,27.48,SW,225,7.4,7.8,40,0.00,,,0.00,WUHU216HW,2013-04-21 00:42:00,
2013-04-20 17:47:00,57.8,33.6,27.48,SW,225,8.1,8.5,40,0.00,,,0.00,WUHU216HW,2013-04-21 00:47:00,
2013-04-20 17:52:00,57.6,34.6,27.48,SSW,203,6.3,9.4,42,0.00,,,0.00,WUHU216HW,2013-04-21 00:52:00,
2013-04-20 17:57:00,57.2,33.7,27.48,WSW,248,4.9,10.3,41,0.00,,,0.00,WUHU216HW,2013-04-21 00:57:00,
2013-04-20 18:02:00,57.1,34.1,27.48,SSW,203,6.3,10.3,42,0.00,,,0.00,WUHU216HW,2013-04-21 01:02:00,
2013-04-20 18:07:00,56.5,34.7,27.48,SW,225,6.9,6.9,44,0.00,,,0.00,WUHU216HW,2013-04-21 01:07:00,
2013-04-20 18:12:00,56.5,34.7,27.48,SW,225,8.7,8.7,44,0.00,,,0.00,WUHU216HW,2013-04-21 01:12:00,
2013-04-20 18:17:00,56.5,34.7,27.48,SSE,158,3.8,8.7,44,0.00,,,0.00,WUHU216HW,2013-04-21 01:17:00,
2013-04-20 18:22:00,56.3,35.1,27.48,SSW,203,6.3,8.7,45,0.00,,,0.00,WUHU216HW,2013-04-21 01:22:00,
2013-04-20 18:27:00,56.3,35.1,27.48,SSW,203,3.6,7.2,45,0.00,,,0.00,WUHU216HW,2013-04-21 01:27:00,
2013-04-20 18:32:00,56.3,35.1,27.48,SSW,203,6.0,7.6,45,0.00,,,0.00,WUHU216HW,2013-04-21 01:32:00,
2013-04-20 18:37:00,56.2,35.0,27.48,SW,225,5.1,7.6,45,0.00,,,0.00,WUHU216HW,2013-04-21 01:37:00,
2013-04-20 18:42:00,55.8,35.2,27.47,South,180,5.4,7.4,46,0.00,,,0.00,WUHU216HW,2013-04-21 01:42:00,
2013-04-20 18:47:00,55.6,35.0,27.47,WSW,248,3.8,6.5,46,0.00,,,0.00,WUHU216HW,2013-04-21 01:47:00,
2013-04-20 18:52:00,55.4,35.4,27.47,SSW,203,3.8,6.5,47,0.00,,,0.00,WUHU216HW,2013-04-21 01:52:00,
2013-04-20 18:57:00,55.4,34.8,27.47,South,180,3.8,7.2,46,0.00,,,0.00,WUHU216HW,2013-04-21 01:57:00,
2013-04-20 19:02:00,55.3,35.3,27.48,SW,225,5.6,7.2,47,0.00,,,0.00,WUHU216HW,2013-04-21 02:02:00,
2013-04-20 19:07:00,55.1,35.1,27.48,SSW,203,4.9,7.4,47,0.00,,,0.00,WUHU216HW,2013-04-21 02:07:00,
2013-04-20 19:12:00,54.7,35.3,27.48,SW,225,6.0,7.6,48,0.00,,,0.00,WUHU216HW,2013-04-21 02:12:00,
2013-04-20 19:17:00,54.5,35.2,27.48,SSW,203,4.7,7.6,48,0.00,,,0.00,WUHU216HW,2013-04-21 02:17:00,
2013-04-20 19:22:00,54.2,34.8,27.48,SSW,203,2.7,5.6,48,0.00,,,0.00,WUHU216HW,2013-04-21 02:22:00,
2013-04-20 19:27:00,53.8,34.5,27.48,SSW,203,6.7,9.2,48,0.00,,,0.00,WUHU216HW,2013-04-21 02:27:00,
2013-04-20 19:32:00,53.6,34.9,27.48,SW,225,2.5,9.2,49,0.00,,,0.00,WUHU216HW,2013-04-21 02:32:00,
2013-04-20 19:37:00,53.3,34.6,27.49,SW,225,6.0,7.4,49,0.00,,,0.00,WUHU216HW,2013-04-21 02:37:00,
2013-04-20 19:42:00,53.1,34.4,27.48,SSW,203,4.9,6.0,49,0.00,,,0.00,WUHU216HW,2013-04-21 02:42:00,
2013-04-20 19:47:00,52.7,34.1,27.49,SW,225,4.3,5.4,49,0.00,,,0.00,WUHU216HW,2013-04-21 02:47:00,
2013-04-20 19:52:00,52.4,32.7,27.49,SW,225,5.6,6.5,47,0.00,,,0.00,WUHU216HW,2013-04-21 02:52:00,
2013-04-20 19:57:00,52.4,32.7,27.48,SW,225,6.0,6.5,47,0.00,,,0.00,WUHU216HW,2013-04-21 02:57:00,
2013-04-20 20:02:00,52.2,32.5,27.49,SW,225,4.3,6.3,47,0.00,,,0.00,WUHU216HW,2013-04-21 03:02:00,
2013-04-20 20:07:00,51.8,32.8,27.49,SSW,203,2.9,5.1,48,0.00,,,0.00,WUHU216HW,2013-04-21 03:07:00,
2013-04-20 20:12:00,51.7,32.6,27.49,SW,225,2.7,5.6,48,0.00,,,0.00,WUHU216HW,2013-04-21 03:12:00,
2013-04-20 20:17:00,51.5,31.9,27.49,WSW,248,4.5,5.6,47,0.00,,,0.00,WUHU216HW,2013-04-21 03:17:00,
2013-04-20 20:22:00,51.3,31.2,27.49,SSW,203,4.9,4.9,46,0.00,,,0.00,WUHU216HW,2013-04-21 03:22:00,
2013-04-20 20:27:00,51.3,31.2,27.50,SW,225,2.5,6.5,46,0.00,,,0.00,WUHU216HW,2013-04-21 03:27:00,
2013-04-20 20:32:00,51.1,31.5,27.50,SW,225,1.8,6.5,47,0.00,,,0.00,WUHU216HW,2013-04-21 03:32:00,
2013-04-20 20:37:00,50.8,31.2,27.50,SSW,203,5.6,5.6,47,0.00,,,0.00,WUHU216HW,2013-04-21 03:37:00,
2013-04-20 20:42:00,50.6,31.1,27.50,WSW,248,2.5,5.6,47,0.00,,,0.00,WUHU216HW,2013-04-21 03:42:00,
2013-04-20 20:47:00,50.4,30.9,27.51,SW,225,3.8,4.9,47,0.00,,,0.00,WUHU216HW,2013-04-21 03:47:00,
2013-04-20 20:52:00,50.2,30.7,27.51,SSW,203,4.5,4.9,47,0.00,,,0.00,WUHU216HW,2013-04-21 03:52:00,
2013-04-20 20:57:00,50.0,30.5,27.51,SSW,203,3.8,6.0,47,0.00,,,0.00,WUHU216HW,2013-04-21 03:57:00,
2013-04-20 21:01:00,50.2,30.7,27.51,SSW,203,3.6,6.0,47,0.00,,,0.00,WUHU216HW,2013-04-21 04:01:00,
2013-04-20 21:06:00,49.9,30.3,27.51,SW,225,3.4,6.3,47,0.00,,,0.00,WUHU216HW,2013-04-21 04:06:00,
2013-04-20 21:11:00,49.7,30.8,27.51,WSW,248,3.1,6.3,48,0.00,,,0.00,WUHU216HW,2013-04-21 04:11:00,
2013-04-20 21:16:00,49.5,30.6,27.51,SW,225,3.1,4.5,48,0.00,,,0.00,WUHU216HW,2013-04-21 04:16:00,
2013-04-20 21:21:00,49.3,30.4,27.52,SW,225,3.8,6.7,48,0.00,,,0.00,WUHU216HW,2013-04-21 04:21:00,
2013-04-20 21:26:00,49.5,30.6,27.52,SSW,203,3.6,6.7,48,0.00,,,0.00,WUHU216HW,2013-04-21 04:26:00,
2013-04-20 21:31:00,49.5,30.6,27.52,SW,225,3.8,6.0,48,0.00,,,0.00,WUHU216HW,2013-04-21 04:31:00,
2013-04-20 21:36:00,49.3,29.9,27.52,SW,225,6.9,6.9,47,0.00,,,0.00,WUHU216HW,2013-04-21 04:36:00,
2013-04-20 21:41:00,49.3,30.4,27.52,SW,225,4.7,6.9,48,0.00,,,0.00,WUHU216HW,2013-04-21 04:41:00,
2013-04-20 21:46:00,49.3,30.4,27.52,SW,225,4.7,6.9,48,0.00,,,0.00,WUHU216HW,2013-04-21 04:46:00,
2013-04-20 21:51:00,49.1,30.3,27.52,West,270,4.7,5.8,48,0.00,,,0.00,WUHU216HW,2013-04-21 04:51:00,
2013-04-20 21:56:00,49.0,30.6,27.52,SW,225,2.5,5.8,49,0.00,,,0.00,WUHU216HW,2013-04-21 04:56:00,
2013-04-20 22:01:00,48.8,30.4,27.52,SW,225,5.1,5.1,49,0.00,,,0.00,WUHU216HW,2013-04-21 05:01:00,
2013-04-20 22:06:00,48.6,30.3,27.52,SW,225,5.1,5.4,49,0.00,,,0.00,WUHU216HW,2013-04-21 05:06:00,
2013-04-20 22:11:00,48.6,30.8,27.52,WSW,248,4.7,5.8,50,0.00,,,0.00,WUHU216HW,2013-04-21 05:11:00,
2013-04-20 22:16:00,48.6,30.3,27.52,SW,225,4.5,6.3,49,0.00,,,0.00,WUHU216HW,2013-04-21 05:16:00,
2013-04-20 22:21:00,48.4,30.6,27.52,WSW,248,4.0,6.3,50,0.00,,,0.00,WUHU216HW,2013-04-21 05:21:00,
2013-04-20 22:26:00,48.2,30.4,27.52,WSW,248,8.5,8.5,50,0.00,,,0.00,WUHU216HW,2013-04-21 05:26:00,
2013-04-20 22:31:00,48.2,30.4,27.51,WSW,248,4.7,8.5,50,0.00,,,0.00,WUHU216HW,2013-04-21 05:31:00,
2013-04-20 22:36:00,47.9,30.6,27.52,SSW,203,2.2,4.7,51,0.00,,,0.00,WUHU216HW,2013-04-21 05:36:00,
2013-04-20 22:41:00,47.9,30.6,27.51,SSW,203,3.4,5.1,51,0.00,,,0.00,WUHU216HW,2013-04-21 05:41:00,
2013-04-20 22:46:00,47.7,30.4,27.51,SW,225,3.8,5.8,51,0.00,,,0.00,WUHU216HW,2013-04-21 05:46:00,
2013-04-20 22:51:00,47.5,30.7,27.51,WSW,248,2.9,5.8,52,0.00,,,0.00,WUHU216HW,2013-04-21 05:51:00,
2013-04-20 22:56:00,47.3,30.5,27.52,SW,225,3.4,4.7,52,0.00,,,0.00,WUHU216HW,2013-04-21 05:56:00,
2013-04-20 23:01:00,47.2,30.8,27.52,SW,225,3.4,5.4,53,0.00,,,0.00,WUHU216HW,2013-04-21 06:01:00,
2013-04-20 23:06:00,47.0,30.7,27.52,WSW,248,4.9,5.4,53,0.00,,,0.00,WUHU216HW,2013-04-21 06:06:00,
2013-04-20 23:11:00,47.0,31.2,27.52,SSW,203,2.5,4.9,54,0.00,,,0.00,WUHU216HW,2013-04-21 06:11:00,
2013-04-20 23:16:00,46.8,31.0,27.52,SSW,203,3.1,4.9,54,0.00,,,0.00,WUHU216HW,2013-04-21 06:16:00,
2013-04-20 23:21:00,46.6,30.8,27.52,SW,225,2.5,5.6,54,0.00,,,0.00,WUHU216HW,2013-04-21 06:21:00,
2013-04-20 23:26:00,46.4,31.1,27.52,SSW,203,2.5,5.6,55,0.00,,,0.00,WUHU216HW,2013-04-21 06:26:00,
2013-04-20 23:31:00,46.1,31.1,27.52,SSW,203,1.6,2.9,56,0.00,,,0.00,WUHU216HW,2013-04-21 06:31:00,
2013-04-20 23:36:00,45.5,30.7,27.52,SSW,203,1.1,2.9,56,0.00,,,0.00,WUHU216HW,2013-04-21 06:36:00,
2013-04-20 23:41:00,45.4,31.0,27.53,SSW,203,2.5,2.5,57,0.00,,,0.00,WUHU216HW,2013-04-21 06:41:00,
2013-04-20 23:46:00,45.0,30.7,27.53,SW,225,1.6,2.5,57,0.00,,,0.00,WUHU216HW,2013-04-21 06:46:00,
2013-04-20 23:51:00,45.0,30.7,27.53,SW,225,1.8,3.1,57,0.00,,,0.00,WUHU216HW,2013-04-21 06:51:00,
2013-04-20 23:56:00,45.4,31.0,27.53,SSW,203,4.3,4.3,57,0.00,,,0.00,WUHU216HW,2013-04-21 06:56:00,